createdAt,value
2022-07-29T00:02:06.157Z,3.55
2022-07-29T00:04:35.629Z,3.15
2022-07-29T00:07:04.025Z,3.20
2022-07-29T00:09:31.557Z,3.65
2022-07-29T00:12:01.926Z,4.20
2022-07-29T00:14:29.584Z,3.30
2022-07-29T00:16:57.200Z,3.60
2022-07-29T00:24:29.163Z,3.72
2022-07-29T00:26:56.845Z,3.60
2022-07-29T00:29:33.997Z,3.53
2022-07-29T00:32:02.455Z,3.88
2022-07-29T00:34:47.957Z,3.40
2022-07-29T00:37:15.627Z,3.05
2022-07-29T00:39:44.239Z,3.05
2022-07-29T00:46:25.017Z,3.17
2022-07-29T00:48:52.730Z,4.07
2022-07-29T00:51:20.325Z,3.50
2022-07-29T00:53:51.333Z,3.70
2022-07-29T00:56:19.327Z,3.00
2022-07-29T00:58:49.218Z,3.75
2022-07-29T01:01:16.902Z,3.20
2022-07-29T01:08:49.843Z,4.40
2022-07-29T01:11:18.904Z,4.50
2022-07-29T01:13:48.397Z,3.72
2022-07-29T01:16:22.420Z,4.00
2022-07-29T01:18:55.765Z,4.07
2022-07-29T01:21:51.544Z,4.20
2022-07-29T01:24:48.099Z,3.70
2022-07-29T01:32:28.916Z,4.18
2022-07-29T01:35:04.021Z,4.10
2022-07-29T01:37:39.526Z,4.20
2022-07-29T01:40:12.896Z,4.45
2022-07-29T01:42:44.459Z,3.42
2022-07-29T01:45:16.806Z,4.20
2022-07-29T01:47:50.115Z,3.80
2022-07-29T01:53:03.653Z,3.53
2022-07-29T01:55:36.123Z,4.07
2022-07-29T01:58:06.288Z,4.25
2022-07-29T02:00:35.420Z,3.75
2022-07-29T02:03:08.514Z,3.92
2022-07-29T02:08:06.138Z,3.25
2022-07-29T02:15:38.413Z,3.78
2022-07-29T02:18:09.513Z,4.20
2022-07-29T02:20:38.939Z,3.35
2022-07-29T02:23:10.375Z,3.83
2022-07-29T02:25:39.899Z,3.70
2022-07-29T02:28:08.982Z,3.78
2022-07-29T02:30:41.387Z,3.72
2022-07-29T02:38:27.983Z,3.55
2022-07-29T02:40:59.012Z,3.55
2022-07-29T02:43:27.617Z,4.00
2022-07-29T02:45:57.609Z,3.72
2022-07-29T02:48:32.982Z,4.03
2022-07-29T02:51:06.263Z,3.42
2022-07-29T02:53:35.894Z,3.78
2022-07-29T03:00:42.125Z,4.28
2022-07-29T03:03:14.290Z,3.90
2022-07-29T03:05:42.223Z,4.00
2022-07-29T03:08:12.908Z,3.42
2022-07-29T03:10:44.248Z,4.63
2022-07-29T03:13:13.556Z,3.50
2022-07-29T03:15:44.850Z,5.13
2022-07-29T03:22:43.903Z,3.42
2022-07-29T03:25:12.494Z,4.13
2022-07-29T03:27:40.487Z,3.47
2022-07-29T03:30:09.541Z,3.88
2022-07-29T03:32:37.376Z,3.60
2022-07-29T03:35:06.537Z,3.95
2022-07-29T03:37:34.336Z,3.80
2022-07-29T03:45:19.710Z,4.43
2022-07-29T03:47:57.077Z,4.72
2022-07-29T03:50:28.331Z,4.30
2022-07-29T03:52:55.988Z,4.22
2022-07-29T03:55:24.373Z,4.47
2022-07-29T03:57:52.418Z,4.47
2022-07-29T04:00:20.647Z,4.40
2022-07-29T04:07:51.324Z,3.80
2022-07-29T04:10:25.234Z,3.92
2022-07-29T04:12:59.654Z,4.57
2022-07-29T04:15:30.955Z,4.20
2022-07-29T04:17:59.783Z,4.63
2022-07-29T04:20:27.438Z,3.83
2022-07-29T04:22:56.757Z,4.03
2022-07-29T04:29:18.360Z,4.22
2022-07-29T04:31:46.033Z,4.03
2022-07-29T04:34:14.458Z,3.53
2022-07-29T04:36:42.045Z,4.70
2022-07-29T04:39:10.497Z,4.78
2022-07-29T04:41:38.082Z,4.50
2022-07-29T04:44:07.022Z,4.55
2022-07-29T04:51:38.273Z,4.45
2022-07-29T04:54:06.606Z,3.75
2022-07-29T04:56:33.927Z,4.80
2022-07-29T04:59:01.345Z,4.47
2022-07-29T05:01:28.816Z,4.55
2022-07-29T05:04:00.264Z,4.30
2022-07-29T05:06:28.294Z,4.80
2022-07-29T05:13:59.415Z,5.10
2022-07-29T05:16:27.190Z,4.28
2022-07-29T05:18:54.623Z,4.95
2022-07-29T05:21:22.164Z,5.18
2022-07-29T05:23:49.707Z,5.25
2022-07-29T05:26:17.365Z,6.05
2022-07-29T05:28:44.893Z,5.97
2022-07-29T05:33:55.366Z,5.55
2022-07-29T05:36:22.816Z,4.93
2022-07-29T05:38:51.324Z,4.00
2022-07-29T05:41:18.946Z,4.97
2022-07-29T05:43:46.444Z,4.68
2022-07-29T05:46:14.401Z,4.75
2022-07-29T05:48:42.082Z,4.63
2022-07-29T05:56:13.572Z,5.35
2022-07-29T05:58:41.031Z,4.22
2022-07-29T06:01:08.506Z,4.70
2022-07-29T06:03:38.123Z,4.10
2022-07-29T06:06:06.711Z,4.20
2022-07-29T06:08:34.718Z,4.00
2022-07-29T06:11:02.276Z,3.90
2022-07-29T06:18:33.276Z,4.28
2022-07-29T06:21:00.876Z,4.10
2022-07-29T06:23:28.590Z,4.68
2022-07-29T06:25:56.150Z,4.60
2022-07-29T06:28:23.802Z,3.38
2022-07-29T06:30:51.265Z,4.18
2022-07-29T06:33:19.306Z,3.42
2022-07-29T06:41:02.602Z,3.80
2022-07-29T06:43:34.066Z,3.60
2022-07-29T06:46:02.522Z,3.53
2022-07-29T06:48:30.256Z,3.33
2022-07-29T06:50:57.878Z,3.50
2022-07-29T06:53:25.743Z,3.40
2022-07-29T06:55:54.022Z,3.25
2022-07-29T07:03:29.856Z,3.30
2022-07-29T07:05:57.948Z,3.35
2022-07-29T07:08:27.661Z,3.20
2022-07-29T07:10:56.816Z,3.28
2022-07-29T07:13:24.525Z,3.05
2022-07-29T07:15:52.554Z,3.10
2022-07-29T07:18:20.379Z,3.08
2022-07-29T07:25:25.993Z,3.17
2022-07-29T07:27:53.632Z,3.30
2022-07-29T07:30:21.209Z,3.30
2022-07-29T07:32:48.901Z,3.15
2022-07-29T07:35:16.519Z,2.83
2022-07-29T07:37:44.161Z,2.85
2022-07-29T07:40:12.821Z,3.30
2022-07-29T07:47:49.883Z,2.92
2022-07-29T07:50:19.191Z,2.58
2022-07-29T07:52:51.770Z,3.25
2022-07-29T07:55:19.977Z,3.33
2022-07-29T07:57:48.115Z,3.00
2022-07-29T08:00:17.690Z,3.40
2022-07-29T08:02:46.183Z,3.47
2022-07-29T08:10:39.855Z,3.15
2022-07-29T08:13:09.331Z,3.35
2022-07-29T08:15:37.052Z,2.60
2022-07-29T08:18:08.684Z,8.93
2022-07-29T08:20:38.488Z,3.38
2022-07-29T08:23:08.982Z,3.35
2022-07-29T08:25:40.096Z,3.28
2022-07-29T08:30:45.917Z,3.00
2022-07-29T08:33:13.466Z,3.10
2022-07-29T08:35:41.205Z,3.25
2022-07-29T08:38:08.984Z,3.05
2022-07-29T08:40:36.483Z,3.17
2022-07-29T08:43:07.963Z,3.00
2022-07-29T08:45:47.586Z,2.80
2022-07-29T08:53:16.746Z,3.10
2022-07-29T08:55:46.988Z,2.42
2022-07-29T08:58:15.902Z,2.50
2022-07-29T09:00:45.877Z,2.83
2022-07-29T09:03:16.489Z,2.70
2022-07-29T09:05:48.066Z,2.30
2022-07-29T09:08:18.644Z,3.03
2022-07-29T09:15:11.337Z,2.78
2022-07-29T09:17:43.810Z,2.65
2022-07-29T09:20:13.042Z,2.60
2022-07-29T09:22:42.247Z,2.33
2022-07-29T09:25:12.724Z,2.67
2022-07-29T09:27:40.417Z,2.22
2022-07-29T09:30:11.065Z,2.17
2022-07-29T09:36:54.173Z,2.67
2022-07-29T09:39:29.881Z,2.67
2022-07-29T09:41:59.333Z,2.63
2022-07-29T09:44:27.636Z,2.40
2022-07-29T09:47:03.122Z,2.13
2022-07-29T09:49:30.817Z,2.40
2022-07-29T09:52:05.674Z,2.40
2022-07-29T09:59:37.032Z,2.35
2022-07-29T10:02:23.482Z,2.17
2022-07-29T10:04:51.578Z,2.47
2022-07-29T10:07:19.737Z,2.40
2022-07-29T10:09:54.966Z,2.50
2022-07-29T10:12:23.267Z,2.72
2022-07-29T10:14:52.231Z,2.90
2022-07-29T10:22:43.670Z,2.58
2022-07-29T10:25:08.572Z,2.30
2022-07-29T10:27:36.694Z,2.45
2022-07-29T10:30:05.472Z,2.30
2022-07-29T10:32:51.155Z,2.58
2022-07-29T10:35:37.230Z,2.25
2022-07-29T10:43:18.177Z,2.80
2022-07-29T10:45:50.187Z,2.65
2022-07-29T10:48:18.130Z,2.53
2022-07-29T10:51:01.350Z,2.58
2022-07-29T10:53:48.673Z,3.00
2022-07-29T10:56:27.435Z,2.60
2022-07-29T11:05:08.820Z,2.30
2022-07-29T11:07:45.615Z,2.90
2022-07-29T11:10:26.875Z,2.40
2022-07-29T11:12:59.048Z,2.35
2022-07-29T11:15:28.500Z,2.92
2022-07-29T11:18:14.965Z,3.03
2022-07-29T11:23:27.071Z,2.50
2022-07-29T11:26:18.846Z,2.70
2022-07-29T11:28:58.521Z,2.60
2022-07-29T11:31:38.304Z,2.60
2022-07-29T11:34:22.817Z,3.00
2022-07-29T11:37:27.720Z,3.58
2022-07-29T11:43:52.184Z,3.38
2022-07-29T11:46:47.021Z,2.70
2022-07-29T11:49:19.730Z,2.92
2022-07-29T11:51:52.654Z,3.05
2022-07-29T11:54:27.403Z,2.95
2022-07-29T11:56:56.019Z,2.88
2022-07-29T11:59:33.517Z,3.45
2022-07-29T12:07:00.457Z,2.85
2022-07-29T12:09:28.332Z,3.05
2022-07-29T12:12:08.317Z,3.17
2022-07-29T12:14:36.252Z,3.08
2022-07-29T12:17:03.844Z,3.10
2022-07-29T12:19:44.108Z,2.55
2022-07-29T12:22:12.938Z,3.22
2022-07-29T12:29:58.207Z,3.00
2022-07-29T12:32:32.798Z,3.22
2022-07-29T12:35:01.448Z,3.00
2022-07-29T12:37:41.048Z,2.60
2022-07-29T12:40:12.283Z,2.85
2022-07-29T12:42:41.245Z,2.97
2022-07-29T12:50:27.848Z,2.97
2022-07-29T12:52:55.630Z,3.20
2022-07-29T12:55:52.260Z,2.90
2022-07-29T12:58:33.765Z,2.42
2022-07-29T13:01:07.291Z,2.83
2022-07-29T13:03:57.755Z,3.03
2022-07-29T13:11:40.835Z,3.00
2022-07-29T13:14:11.312Z,2.97
2022-07-29T13:17:04.492Z,2.90
2022-07-29T13:19:41.191Z,2.95
2022-07-29T13:22:09.117Z,3.08
2022-07-29T13:24:48.768Z,2.88
2022-07-29T13:31:10.085Z,3.50
2022-07-29T13:33:37.732Z,3.13
2022-07-29T13:36:05.598Z,3.00
2022-07-29T13:38:33.250Z,3.30
2022-07-29T13:41:01.714Z,2.85
2022-07-29T13:43:29.581Z,2.90
2022-07-29T13:45:57.649Z,3.10
2022-07-29T13:52:35.955Z,2.92
2022-07-29T13:55:04.568Z,3.38
2022-07-29T13:57:32.725Z,3.08
2022-07-29T14:00:00.240Z,3.20
2022-07-29T14:02:28.029Z,3.05
2022-07-29T14:04:56.137Z,3.45
2022-07-29T14:07:24.135Z,3.88
2022-07-29T14:14:48.007Z,3.08
2022-07-29T14:17:15.629Z,3.55
2022-07-29T14:19:43.471Z,2.90
2022-07-29T14:22:11.325Z,3.40
2022-07-29T14:24:39.863Z,3.67
2022-07-29T14:27:08.536Z,3.13
2022-07-29T14:29:37.945Z,3.17
2022-07-29T14:36:43.805Z,3.22
2022-07-29T14:39:11.560Z,3.03
2022-07-29T14:41:39.276Z,3.05
2022-07-29T14:44:07.037Z,3.22
2022-07-29T14:46:34.861Z,3.60
2022-07-29T14:49:02.622Z,3.40
2022-07-29T14:51:32.273Z,3.88
2022-07-29T14:56:46.336Z,3.55
2022-07-29T14:59:14.584Z,3.00
2022-07-29T15:01:42.167Z,3.28
2022-07-29T15:04:09.780Z,3.03
2022-07-29T15:06:38.534Z,3.42
2022-07-29T15:09:06.022Z,2.85
2022-07-29T15:11:37.875Z,2.92
2022-07-29T15:16:47.024Z,3.03
2022-07-29T15:19:15.954Z,3.20
2022-07-29T15:21:48.482Z,3.20
2022-07-29T15:24:16.985Z,3.42
2022-07-29T15:26:45.214Z,3.35
2022-07-29T15:29:13.791Z,4.38
2022-07-29T15:31:41.799Z,3.05
2022-07-29T15:38:32.104Z,3.20
2022-07-29T15:40:59.752Z,3.75
2022-07-29T15:43:27.610Z,3.88
2022-07-29T15:46:13.544Z,3.35
2022-07-29T15:48:41.294Z,3.28
2022-07-29T15:51:09.151Z,3.47
2022-07-29T15:53:37.708Z,2.97
2022-07-29T16:00:44.353Z,4.00
2022-07-29T16:03:12.212Z,3.17
2022-07-29T16:05:39.917Z,3.40
2022-07-29T16:08:07.612Z,3.50
2022-07-29T16:10:35.813Z,3.45
2022-07-29T16:13:03.451Z,3.60
2022-07-29T16:15:31.248Z,3.08
2022-07-29T16:22:57.914Z,3.47
2022-07-29T16:25:43.867Z,3.33
2022-07-29T16:28:13.245Z,3.38
2022-07-29T16:30:40.932Z,3.20
2022-07-29T16:33:08.692Z,3.45
2022-07-29T16:35:39.681Z,3.47
2022-07-29T16:38:08.968Z,3.38
2022-07-29T16:43:14.801Z,3.13
2022-07-29T16:45:46.253Z,3.50
2022-07-29T16:48:14.991Z,3.28
2022-07-29T16:50:44.972Z,3.10
2022-07-29T16:53:12.797Z,2.95
2022-07-29T16:55:42.330Z,3.72
2022-07-29T16:58:10.436Z,3.10
2022-07-29T17:05:11.894Z,3.10
2022-07-29T17:07:39.923Z,3.50
2022-07-29T17:10:09.536Z,3.70
2022-07-29T17:12:40.033Z,3.58
2022-07-29T17:15:10.367Z,3.42
2022-07-29T17:17:56.491Z,3.35
2022-07-29T17:20:27.135Z,3.00
2022-07-29T17:27:06.113Z,2.85
2022-07-29T17:29:34.942Z,3.70
2022-07-29T17:32:03.149Z,4.05
2022-07-29T17:34:31.188Z,3.08
2022-07-29T17:36:58.923Z,3.10
2022-07-29T17:39:26.791Z,3.50
2022-07-29T17:41:54.381Z,3.83
2022-07-29T17:49:26.443Z,3.33
2022-07-29T17:51:57.659Z,3.15
2022-07-29T17:54:29.365Z,2.70
2022-07-29T17:56:57.502Z,2.90
2022-07-29T17:59:25.227Z,3.13
2022-07-29T18:01:52.936Z,3.55
2022-07-29T18:04:22.805Z,3.33
2022-07-29T18:11:52.164Z,3.05
2022-07-29T18:14:19.823Z,3.13
2022-07-29T18:16:47.542Z,3.67
2022-07-29T18:19:15.674Z,3.22
2022-07-29T18:21:54.003Z,3.25
2022-07-29T18:24:24.750Z,3.55
2022-07-29T18:26:53.394Z,3.15
2022-07-29T18:34:09.869Z,3.60
2022-07-29T18:36:37.568Z,3.30
2022-07-29T18:39:05.257Z,3.53
2022-07-29T18:41:33.010Z,3.38
2022-07-29T18:44:00.656Z,3.60
2022-07-29T18:46:29.165Z,3.28
2022-07-29T18:48:57.182Z,4.38
2022-07-29T18:56:00.266Z,3.88
2022-07-29T18:58:28.160Z,3.85
2022-07-29T19:00:55.872Z,4.13
2022-07-29T19:03:23.610Z,3.72
2022-07-29T19:05:51.911Z,4.28
2022-07-29T19:08:19.571Z,3.45
2022-07-29T19:10:47.391Z,3.75
2022-07-29T19:18:15.991Z,3.65
2022-07-29T19:20:43.787Z,3.50
2022-07-29T19:23:11.413Z,3.70
2022-07-29T19:25:53.267Z,3.67
2022-07-29T19:28:22.101Z,3.70
2022-07-29T19:30:50.007Z,3.70
2022-07-29T19:33:19.201Z,3.83
2022-07-29T19:40:47.694Z,3.92
2022-07-29T19:43:50.994Z,4.13
2022-07-29T19:46:03.053Z,3.47
2022-07-29T19:48:30.752Z,3.78
2022-07-29T19:50:58.768Z,3.75
2022-07-29T19:53:26.450Z,3.85
2022-07-29T19:55:55.117Z,3.72
2022-07-29T20:02:43.063Z,4.20
2022-07-29T20:05:11.195Z,3.58
2022-07-29T20:07:39.682Z,3.90
2022-07-29T20:10:09.348Z,3.65
2022-07-29T20:12:38.158Z,3.35
2022-07-29T20:15:06.969Z,3.85
2022-07-29T20:17:39.411Z,3.92
2022-07-29T20:25:09.467Z,3.85
2022-07-29T20:27:40.001Z,3.40
2022-07-29T20:30:08.599Z,4.05
2022-07-29T20:32:36.145Z,3.88
2022-07-29T20:35:03.927Z,3.72
2022-07-29T20:37:32.181Z,3.65
2022-07-29T20:39:59.694Z,3.88
2022-07-29T20:47:26.461Z,3.63
2022-07-29T20:49:54.100Z,3.67
2022-07-29T20:52:23.057Z,3.40
2022-07-29T20:54:50.678Z,3.78
2022-07-29T20:57:18.353Z,3.97
2022-07-29T21:00:07.895Z,3.53
2022-07-29T21:02:36.916Z,4.30
2022-07-29T21:10:09.319Z,3.88
2022-07-29T21:12:38.186Z,3.60
2022-07-29T21:15:06.629Z,3.38
2022-07-29T21:17:35.677Z,3.63
2022-07-29T21:20:04.923Z,3.40
2022-07-29T21:22:32.431Z,2.88
2022-07-29T21:25:00.399Z,3.00
2022-07-29T21:32:50.673Z,3.35
2022-07-29T21:35:45.108Z,3.30
2022-07-29T21:38:05.902Z,3.15
2022-07-29T21:40:33.397Z,3.45
2022-07-29T21:43:00.921Z,3.50
2022-07-29T21:45:28.598Z,3.10
2022-07-29T21:47:56.948Z,3.63
2022-07-29T21:55:28.003Z,3.75
2022-07-29T21:57:57.709Z,4.65
2022-07-29T22:00:25.497Z,3.90
2022-07-29T22:02:53.468Z,4.05
2022-07-29T22:05:21.626Z,3.35
2022-07-29T22:07:55.305Z,3.38
2022-07-29T22:10:25.129Z,3.67
2022-07-29T22:17:56.006Z,3.67
2022-07-29T22:20:23.985Z,3.10
2022-07-29T22:22:51.484Z,3.38
2022-07-29T22:25:19.095Z,3.78
2022-07-29T22:27:46.819Z,3.63
2022-07-29T22:30:14.804Z,3.08
2022-07-29T22:32:42.426Z,3.22
2022-07-29T22:38:36.791Z,3.42
2022-07-29T22:41:04.324Z,2.97
2022-07-29T22:43:31.806Z,3.30
2022-07-29T22:45:59.293Z,3.58
2022-07-29T22:48:26.872Z,3.97
2022-07-29T22:50:54.378Z,3.15
2022-07-29T22:53:21.989Z,2.97
2022-07-29T23:00:53.003Z,3.53
2022-07-29T23:03:21.894Z,3.72
2022-07-29T23:05:51.030Z,4.03
2022-07-29T23:08:19.015Z,3.20
2022-07-29T23:10:46.928Z,3.15
2022-07-29T23:13:14.685Z,3.03
2022-07-29T23:15:42.293Z,2.75
2022-07-29T23:23:09.064Z,3.65
2022-07-29T23:25:36.618Z,2.85
2022-07-29T23:28:04.852Z,3.05
2022-07-29T23:30:32.435Z,3.17
2022-07-29T23:32:59.899Z,2.63
2022-07-29T23:35:28.072Z,2.90
2022-07-29T23:37:55.579Z,3.03
2022-07-29T23:45:39.972Z,3.13
2022-07-29T23:48:12.578Z,2.92
2022-07-29T23:50:40.056Z,3.20
2022-07-29T23:53:07.605Z,2.70
2022-07-29T23:55:36.877Z,2.95
2022-07-29T23:58:05.827Z,3.13
